sensor_id;sensor_type;location;lat;lon;timestamp;P1;durP1;ratioP1;P2;durP2;ratioP2
5702;SDS011;2876;51.738;10.050;2023-03-01T00:01:52;11.03;;;5.70;;
5702;SDS011;2876;51.738;10.050;2023-03-01T00:07:54;11.27;;;6.37;;
5702;SDS011;2876;51.738;10.050;2023-03-01T00:13:57;11.33;;;6.90;;
5702;SDS011;2876;51.738;10.050;2023-03-01T00:20:08;10.93;;;5.97;;
5702;SDS011;2876;51.738;10.050;2023-03-01T00:26:12;9.30;;;6.13;;
5702;SDS011;2876;51.738;10.050;2023-03-01T00:32:15;11.50;;;7.30;;
5702;SDS011;2876;51.738;10.050;2023-03-01T00:38:17;14.27;;;7.93;;
5702;SDS011;2876;51.738;10.050;2023-03-01T00:44:19;19.00;;;8.37;;
5702;SDS011;2876;51.738;10.050;2023-03-01T00:50:21;6.10;;;4.43;;
5702;SDS011;2876;51.738;10.050;2023-03-01T00:56:23;8.37;;;5.70;;
5702;SDS011;2876;51.738;10.050;2023-03-01T01:02:26;11.73;;;5.90;;
5702;SDS011;2876;51.738;10.050;2023-03-01T01:08:28;7.93;;;5.67;;
5702;SDS011;2876;51.738;10.050;2023-03-01T01:14:30;11.30;;;8.00;;
5702;SDS011;2876;51.738;10.050;2023-03-01T01:20:32;9.60;;;6.80;;
5702;SDS011;2876;51.738;10.050;2023-03-01T01:26:36;8.63;;;5.27;;
5702;SDS011;2876;51.738;10.050;2023-03-01T01:32:38;11.30;;;6.70;;
5702;SDS011;2876;51.738;10.050;2023-03-01T01:38:40;9.70;;;6.30;;
5702;SDS011;2876;51.738;10.050;2023-03-01T01:44:47;10.83;;;6.20;;
5702;SDS011;2876;51.738;10.050;2023-03-01T01:50:55;8.63;;;5.93;;
5702;SDS011;2876;51.738;10.050;2023-03-01T01:57:02;8.30;;;5.37;;
5702;SDS011;2876;51.738;10.050;2023-03-01T02:03:11;9.50;;;6.07;;
5702;SDS011;2876;51.738;10.050;2023-03-01T02:09:22;8.50;;;5.90;;
5702;SDS011;2876;51.738;10.050;2023-03-01T02:15:25;10.47;;;6.67;;
5702;SDS011;2876;51.738;10.050;2023-03-01T02:21:35;9.97;;;6.20;;
5702;SDS011;2876;51.738;10.050;2023-03-01T02:34:38;11.93;;;6.63;;
5702;SDS011;2876;51.738;10.050;2023-03-01T02:40:40;13.07;;;8.00;;
5702;SDS011;2876;51.738;10.050;2023-03-01T02:46:52;10.43;;;6.80;;
5702;SDS011;2876;51.738;10.050;2023-03-01T02:53:08;9.97;;;6.50;;
5702;SDS011;2876;51.738;10.050;2023-03-01T02:59:21;10.53;;;6.63;;
5702;SDS011;2876;51.738;10.050;2023-03-01T03:05:31;10.77;;;6.03;;
5702;SDS011;2876;51.738;10.050;2023-03-01T03:11:34;10.90;;;6.50;;
5702;SDS011;2876;51.738;10.050;2023-03-01T03:17:39;11.67;;;7.23;;
5702;SDS011;2876;51.738;10.050;2023-03-01T03:23:46;11.40;;;7.40;;
5702;SDS011;2876;51.738;10.050;2023-03-01T03:29:48;13.80;;;6.17;;
5702;SDS011;2876;51.738;10.050;2023-03-01T03:35:50;8.90;;;6.63;;
5702;SDS011;2876;51.738;10.050;2023-03-01T03:41:52;10.17;;;5.90;;
5702;SDS011;2876;51.738;10.050;2023-03-01T03:47:56;10.57;;;6.47;;
5702;SDS011;2876;51.738;10.050;2023-03-01T03:53:58;9.90;;;6.40;;
5702;SDS011;2876;51.738;10.050;2023-03-01T04:00:00;13.63;;;6.40;;
5702;SDS011;2876;51.738;10.050;2023-03-01T04:06:02;10.57;;;6.50;;
5702;SDS011;2876;51.738;10.050;2023-03-01T04:12:05;8.40;;;6.20;;
5702;SDS011;2876;51.738;10.050;2023-03-01T04:18:14;11.97;;;6.90;;
5702;SDS011;2876;51.738;10.050;2023-03-01T04:24:18;14.77;;;6.83;;
5702;SDS011;2876;51.738;10.050;2023-03-01T04:30:20;14.20;;;7.90;;
5702;SDS011;2876;51.738;10.050;2023-03-01T04:36:27;8.37;;;6.27;;
5702;SDS011;2876;51.738;10.050;2023-03-01T04:42:31;12.97;;;6.10;;
5702;SDS011;2876;51.738;10.050;2023-03-01T04:48:33;9.33;;;6.63;;
5702;SDS011;2876;51.738;10.050;2023-03-01T04:54:40;12.13;;;7.13;;
5702;SDS011;2876;51.738;10.050;2023-03-01T05:00:42;13.17;;;7.20;;
5702;SDS011;2876;51.738;10.050;2023-03-01T05:06:44;12.43;;;6.90;;
5702;SDS011;2876;51.738;10.050;2023-03-01T05:12:46;10.17;;;7.07;;
5702;SDS011;2876;51.738;10.050;2023-03-01T05:18:48;10.50;;;7.83;;
5702;SDS011;2876;51.738;10.050;2023-03-01T05:24:51;12.40;;;7.50;;
5702;SDS011;2876;51.738;10.050;2023-03-01T05:30:55;12.37;;;7.53;;
5702;SDS011;2876;51.738;10.050;2023-03-01T05:36:58;9.50;;;7.37;;
5702;SDS011;2876;51.738;10.050;2023-03-01T05:43:00;11.80;;;7.93;;
5702;SDS011;2876;51.738;10.050;2023-03-01T05:49:06;9.70;;;7.13;;
5702;SDS011;2876;51.738;10.050;2023-03-01T05:55:08;11.40;;;6.70;;
5702;SDS011;2876;51.738;10.050;2023-03-01T06:01:11;16.97;;;7.50;;
5702;SDS011;2876;51.738;10.050;2023-03-01T06:07:14;11.43;;;7.10;;
5702;SDS011;2876;51.738;10.050;2023-03-01T06:13:16;14.13;;;8.43;;
5702;SDS011;2876;51.738;10.050;2023-03-01T06:19:18;13.90;;;7.83;;
5702;SDS011;2876;51.738;10.050;2023-03-01T06:25:21;11.37;;;7.37;;
5702;SDS011;2876;51.738;10.050;2023-03-01T06:31:25;13.47;;;8.50;;
5702;SDS011;2876;51.738;10.050;2023-03-01T06:37:27;16.23;;;8.50;;
5702;SDS011;2876;51.738;10.050;2023-03-01T06:43:28;23.70;;;10.57;;
5702;SDS011;2876;51.738;10.050;2023-03-01T06:49:30;24.03;;;10.80;;
5702;SDS011;2876;51.738;10.050;2023-03-01T06:55:32;36.40;;;15.80;;
5702;SDS011;2876;51.738;10.050;2023-03-01T07:01:34;32.67;;;13.70;;
5702;SDS011;2876;51.738;10.050;2023-03-01T07:07:36;24.87;;;12.30;;
5702;SDS011;2876;51.738;10.050;2023-03-01T07:13:38;20.10;;;10.20;;
5702;SDS011;2876;51.738;10.050;2023-03-01T07:19:41;20.43;;;9.97;;
5702;SDS011;2876;51.738;10.050;2023-03-01T07:25:43;17.43;;;8.83;;
5702;SDS011;2876;51.738;10.050;2023-03-01T07:31:44;13.37;;;8.30;;
5702;SDS011;2876;51.738;10.050;2023-03-01T07:37:47;13.40;;;7.90;;
5702;SDS011;2876;51.738;10.050;2023-03-01T07:43:48;13.10;;;9.20;;
5702;SDS011;2876;51.738;10.050;2023-03-01T07:49:50;14.80;;;9.17;;
5702;SDS011;2876;51.738;10.050;2023-03-01T07:56:02;11.50;;;8.47;;
5702;SDS011;2876;51.738;10.050;2023-03-01T08:02:10;16.00;;;8.00;;
5702;SDS011;2876;51.738;10.050;2023-03-01T08:08:12;20.23;;;8.10;;
5702;SDS011;2876;51.738;10.050;2023-03-01T08:14:14;10.10;;;7.33;;
5702;SDS011;2876;51.738;10.050;2023-03-01T08:20:16;13.50;;;7.93;;
5702;SDS011;2876;51.738;10.050;2023-03-01T08:26:20;12.20;;;8.33;;
5702;SDS011;2876;51.738;10.050;2023-03-01T08:32:22;12.30;;;8.50;;
5702;SDS011;2876;51.738;10.050;2023-03-01T08:38:24;11.87;;;8.20;;
5702;SDS011;2876;51.738;10.050;2023-03-01T08:44:26;11.63;;;7.97;;
5702;SDS011;2876;51.738;10.050;2023-03-01T08:50:28;11.40;;;8.70;;
5702;SDS011;2876;51.738;10.050;2023-03-01T08:56:30;12.47;;;7.40;;
5702;SDS011;2876;51.738;10.050;2023-03-01T09:02:33;14.03;;;8.03;;
5702;SDS011;2876;51.738;10.050;2023-03-01T09:08:39;13.63;;;7.07;;
5702;SDS011;2876;51.738;10.050;2023-03-01T09:14:43;15.83;;;8.20;;
5702;SDS011;2876;51.738;10.050;2023-03-01T09:20:45;12.73;;;8.40;;
5702;SDS011;2876;51.738;10.050;2023-03-01T09:26:47;11.50;;;7.40;;
5702;SDS011;2876;51.738;10.050;2023-03-01T09:32:51;12.20;;;7.53;;
5702;SDS011;2876;51.738;10.050;2023-03-01T09:38:53;13.47;;;7.83;;
5702;SDS011;2876;51.738;10.050;2023-03-01T09:44:57;11.67;;;6.67;;
5702;SDS011;2876;51.738;10.050;2023-03-01T09:51:06;10.17;;;6.93;;
5702;SDS011;2876;51.738;10.050;2023-03-01T09:57:25;10.27;;;6.53;;
5702;SDS011;2876;51.738;10.050;2023-03-01T10:10:38;7.47;;;5.10;;
5702;SDS011;2876;51.738;10.050;2023-03-01T10:16:52;7.00;;;4.83;;
5702;SDS011;2876;51.738;10.050;2023-03-01T10:23:03;8.70;;;5.63;;
5702;SDS011;2876;51.738;10.050;2023-03-01T10:29:07;7.90;;;4.97;;
5702;SDS011;2876;51.738;10.050;2023-03-01T10:35:18;5.73;;;4.50;;
5702;SDS011;2876;51.738;10.050;2023-03-01T10:41:28;7.13;;;4.60;;
5702;SDS011;2876;51.738;10.050;2023-03-01T10:47:31;7.43;;;5.13;;
5702;SDS011;2876;51.738;10.050;2023-03-01T10:53:34;8.03;;;5.27;;
5702;SDS011;2876;51.738;10.050;2023-03-01T10:59:44;7.40;;;5.53;;
5702;SDS011;2876;51.738;10.050;2023-03-01T11:05:50;8.80;;;6.00;;
5702;SDS011;2876;51.738;10.050;2023-03-01T11:11:54;7.53;;;4.67;;
5702;SDS011;2876;51.738;10.050;2023-03-01T11:17:59;8.33;;;5.97;;
5702;SDS011;2876;51.738;10.050;2023-03-01T11:24:14;9.33;;;5.20;;
5702;SDS011;2876;51.738;10.050;2023-03-01T11:43:02;7.60;;;5.90;;
5702;SDS011;2876;51.738;10.050;2023-03-01T11:56:36;5.97;;;5.33;;
5702;SDS011;2876;51.738;10.050;2023-03-01T12:09:47;9.00;;;5.93;;
5702;SDS011;2876;51.738;10.050;2023-03-01T12:16:07;11.13;;;6.63;;
5702;SDS011;2876;51.738;10.050;2023-03-01T12:29:29;8.33;;;5.60;;
5702;SDS011;2876;51.738;10.050;2023-03-01T12:49:29;9.63;;;6.40;;
5702;SDS011;2876;51.738;10.050;2023-03-01T12:56:01;9.43;;;5.53;;
5702;SDS011;2876;51.738;10.050;2023-03-01T13:08:33;8.77;;;5.50;;
5702;SDS011;2876;51.738;10.050;2023-03-01T13:15:16;8.13;;;5.70;;
5702;SDS011;2876;51.738;10.050;2023-03-01T13:21:36;9.83;;;6.30;;
5702;SDS011;2876;51.738;10.050;2023-03-01T13:27:38;7.17;;;5.43;;
5702;SDS011;2876;51.738;10.050;2023-03-01T13:33:41;6.63;;;5.40;;
5702;SDS011;2876;51.738;10.050;2023-03-01T13:39:53;8.37;;;6.07;;
5702;SDS011;2876;51.738;10.050;2023-03-01T13:45:55;7.30;;;5.50;;
5702;SDS011;2876;51.738;10.050;2023-03-01T13:51:58;9.33;;;5.30;;
5702;SDS011;2876;51.738;10.050;2023-03-01T13:58:02;7.03;;;4.77;;
5702;SDS011;2876;51.738;10.050;2023-03-01T14:10:43;7.33;;;5.00;;
5702;SDS011;2876;51.738;10.050;2023-03-01T14:17:22;3.63;;;3.30;;
5702;SDS011;2876;51.738;10.050;2023-03-01T14:23:32;6.13;;;3.30;;
5702;SDS011;2876;51.738;10.050;2023-03-01T14:29:37;5.10;;;3.67;;
5702;SDS011;2876;51.738;10.050;2023-03-01T14:35:40;4.03;;;3.60;;
5702;SDS011;2876;51.738;10.050;2023-03-01T14:41:42;6.77;;;4.27;;
5702;SDS011;2876;51.738;10.050;2023-03-01T14:47:45;9.10;;;4.20;;
5702;SDS011;2876;51.738;10.050;2023-03-01T14:53:47;5.00;;;3.00;;
5702;SDS011;2876;51.738;10.050;2023-03-01T14:59:55;5.43;;;3.30;;
5702;SDS011;2876;51.738;10.050;2023-03-01T15:06:06;5.73;;;4.00;;
5702;SDS011;2876;51.738;10.050;2023-03-01T15:18:29;9.80;;;4.20;;
5702;SDS011;2876;51.738;10.050;2023-03-01T15:24:31;6.30;;;4.63;;
5702;SDS011;2876;51.738;10.050;2023-03-01T15:30:37;6.30;;;4.60;;
5702;SDS011;2876;51.738;10.050;2023-03-01T15:36:41;8.00;;;4.90;;
5702;SDS011;2876;51.738;10.050;2023-03-01T15:42:46;7.90;;;5.10;;
5702;SDS011;2876;51.738;10.050;2023-03-01T15:48:49;9.70;;;4.50;;
5702;SDS011;2876;51.738;10.050;2023-03-01T15:55:02;6.93;;;4.63;;
5702;SDS011;2876;51.738;10.050;2023-03-01T16:01:16;7.23;;;4.27;;
5702;SDS011;2876;51.738;10.050;2023-03-01T16:07:19;5.60;;;4.07;;
5702;SDS011;2876;51.738;10.050;2023-03-01T16:13:21;5.87;;;3.80;;
5702;SDS011;2876;51.738;10.050;2023-03-01T16:19:23;6.07;;;3.90;;
5702;SDS011;2876;51.738;10.050;2023-03-01T16:25:25;5.93;;;3.73;;
5702;SDS011;2876;51.738;10.050;2023-03-01T16:31:27;5.00;;;3.87;;
5702;SDS011;2876;51.738;10.050;2023-03-01T16:37:31;5.43;;;3.90;;
5702;SDS011;2876;51.738;10.050;2023-03-01T16:43:34;7.23;;;3.97;;
5702;SDS011;2876;51.738;10.050;2023-03-01T16:49:36;7.60;;;4.60;;
5702;SDS011;2876;51.738;10.050;2023-03-01T16:55:38;7.73;;;4.40;;
5702;SDS011;2876;51.738;10.050;2023-03-01T17:01:46;5.83;;;4.60;;
5702;SDS011;2876;51.738;10.050;2023-03-01T17:07:48;6.20;;;4.20;;
5702;SDS011;2876;51.738;10.050;2023-03-01T17:13:50;8.13;;;4.87;;
5702;SDS011;2876;51.738;10.050;2023-03-01T17:19:52;9.30;;;3.93;;
5702;SDS011;2876;51.738;10.050;2023-03-01T17:25:55;8.80;;;5.57;;
5702;SDS011;2876;51.738;10.050;2023-03-01T17:31:57;9.33;;;4.80;;
5702;SDS011;2876;51.738;10.050;2023-03-01T17:38:00;6.30;;;4.73;;
5702;SDS011;2876;51.738;10.050;2023-03-01T17:44:02;9.47;;;4.23;;
5702;SDS011;2876;51.738;10.050;2023-03-01T17:50:04;7.13;;;4.33;;
5702;SDS011;2876;51.738;10.050;2023-03-01T17:56:08;7.87;;;4.87;;
5702;SDS011;2876;51.738;10.050;2023-03-01T18:02:11;7.23;;;4.03;;
5702;SDS011;2876;51.738;10.050;2023-03-01T18:08:13;7.83;;;4.80;;
5702;SDS011;2876;51.738;10.050;2023-03-01T18:14:15;8.40;;;4.47;;
5702;SDS011;2876;51.738;10.050;2023-03-01T18:20:17;8.90;;;4.67;;
5702;SDS011;2876;51.738;10.050;2023-03-01T18:26:19;7.20;;;5.00;;
5702;SDS011;2876;51.738;10.050;2023-03-01T18:32:23;7.37;;;4.90;;
5702;SDS011;2876;51.738;10.050;2023-03-01T18:38:26;8.40;;;5.03;;
5702;SDS011;2876;51.738;10.050;2023-03-01T18:44:29;6.23;;;4.20;;
5702;SDS011;2876;51.738;10.050;2023-03-01T18:50:31;6.07;;;4.57;;
5702;SDS011;2876;51.738;10.050;2023-03-01T18:56:33;7.63;;;5.10;;
5702;SDS011;2876;51.738;10.050;2023-03-01T19:02:35;11.27;;;5.47;;
5702;SDS011;2876;51.738;10.050;2023-03-01T19:08:37;9.53;;;4.63;;
5702;SDS011;2876;51.738;10.050;2023-03-01T19:14:42;7.33;;;4.80;;
5702;SDS011;2876;51.738;10.050;2023-03-01T19:20:44;9.53;;;5.20;;
5702;SDS011;2876;51.738;10.050;2023-03-01T19:26:48;6.80;;;4.00;;
5702;SDS011;2876;51.738;10.050;2023-03-01T19:32:50;7.30;;;4.90;;
5702;SDS011;2876;51.738;10.050;2023-03-01T19:38:52;6.87;;;4.93;;
5702;SDS011;2876;51.738;10.050;2023-03-01T19:44:54;8.20;;;5.10;;
5702;SDS011;2876;51.738;10.050;2023-03-01T19:50:56;6.60;;;4.10;;
5702;SDS011;2876;51.738;10.050;2023-03-01T19:56:58;6.77;;;4.70;;
5702;SDS011;2876;51.738;10.050;2023-03-01T20:03:00;8.67;;;4.70;;
5702;SDS011;2876;51.738;10.050;2023-03-01T20:09:04;5.83;;;4.77;;
5702;SDS011;2876;51.738;10.050;2023-03-01T20:15:21;10.40;;;5.17;;
5702;SDS011;2876;51.738;10.050;2023-03-01T20:21:22;6.63;;;4.33;;
5702;SDS011;2876;51.738;10.050;2023-03-01T20:27:25;7.77;;;4.10;;
5702;SDS011;2876;51.738;10.050;2023-03-01T20:33:27;8.47;;;4.13;;
5702;SDS011;2876;51.738;10.050;2023-03-01T20:39:29;7.73;;;4.83;;
5702;SDS011;2876;51.738;10.050;2023-03-01T20:45:31;6.40;;;4.57;;
5702;SDS011;2876;51.738;10.050;2023-03-01T20:51:33;7.67;;;5.43;;
5702;SDS011;2876;51.738;10.050;2023-03-01T20:57:35;8.23;;;3.90;;
5702;SDS011;2876;51.738;10.050;2023-03-01T21:03:37;5.00;;;3.40;;
5702;SDS011;2876;51.738;10.050;2023-03-01T21:09:39;11.93;;;4.73;;
5702;SDS011;2876;51.738;10.050;2023-03-01T21:15:50;6.03;;;3.90;;
5702;SDS011;2876;51.738;10.050;2023-03-01T21:21:57;10.60;;;5.50;;
5702;SDS011;2876;51.738;10.050;2023-03-01T21:27:59;12.80;;;8.17;;
5702;SDS011;2876;51.738;10.050;2023-03-01T21:34:02;9.10;;;4.60;;
5702;SDS011;2876;51.738;10.050;2023-03-01T21:40:06;9.30;;;5.20;;
5702;SDS011;2876;51.738;10.050;2023-03-01T21:46:10;12.60;;;7.00;;
5702;SDS011;2876;51.738;10.050;2023-03-01T21:52:15;10.93;;;6.50;;
5702;SDS011;2876;51.738;10.050;2023-03-01T21:58:18;12.93;;;6.90;;
5702;SDS011;2876;51.738;10.050;2023-03-01T22:04:20;10.20;;;6.00;;
5702;SDS011;2876;51.738;10.050;2023-03-01T22:10:25;14.87;;;5.90;;
5702;SDS011;2876;51.738;10.050;2023-03-01T22:16:28;12.50;;;7.37;;
5702;SDS011;2876;51.738;10.050;2023-03-01T22:22:32;8.00;;;5.57;;
5702;SDS011;2876;51.738;10.050;2023-03-01T22:28:35;9.77;;;5.50;;
5702;SDS011;2876;51.738;10.050;2023-03-01T22:34:37;10.27;;;6.10;;
5702;SDS011;2876;51.738;10.050;2023-03-01T22:40:39;12.30;;;6.33;;
5702;SDS011;2876;51.738;10.050;2023-03-01T22:46:41;11.80;;;6.27;;
5702;SDS011;2876;51.738;10.050;2023-03-01T22:52:44;9.67;;;5.40;;
5702;SDS011;2876;51.738;10.050;2023-03-01T22:58:46;11.30;;;6.27;;
5702;SDS011;2876;51.738;10.050;2023-03-01T23:04:49;10.17;;;6.23;;
5702;SDS011;2876;51.738;10.050;2023-03-01T23:10:54;5.70;;;4.60;;
5702;SDS011;2876;51.738;10.050;2023-03-01T23:16:56;10.00;;;5.50;;
5702;SDS011;2876;51.738;10.050;2023-03-01T23:22:58;8.80;;;5.47;;
5702;SDS011;2876;51.738;10.050;2023-03-01T23:29:01;9.33;;;5.33;;
5702;SDS011;2876;51.738;10.050;2023-03-01T23:35:04;6.97;;;4.83;;
5702;SDS011;2876;51.738;10.050;2023-03-01T23:41:12;8.40;;;5.43;;
5702;SDS011;2876;51.738;10.050;2023-03-01T23:47:16;11.23;;;6.80;;
5702;SDS011;2876;51.738;10.050;2023-03-01T23:53:18;8.60;;;5.00;;
5702;SDS011;2876;51.738;10.050;2023-03-01T23:59:21;9.27;;;5.20;;
